Alsen, South Dakota
Current Conditions -  °F | °C
As of 2:35 AM on Wednesday 26 Nov 2014 (Local Time) from KYKN Reporting Station
Overcast Overcast  
Wind Chill: 25°   Ceiling: 1800
Heat Index: 36°   Visibility: 10mi
Dew Point: 32°   Wind: 18mph
Humidity: 87%   Direction: 300°WNW
Pressure: 29.86"   Gusts: 24mph
Location:  43.1048°N, 96.7944°W
Report Text: KYKN 260835Z AUTO 30016G21KT 10SM OVC018 02/00 A2986 RMK AO1
Loading
Personal Weather Stations






























Interactive Weather Map New forecast layout! Learn more

10-Day Weather Forecast

Advertisements
Track Severe Weather on mobile